Details From BIEG - Egilsstadir
To LIMJ - Genova Sestri
Flight Number -
Tags Decoded
Created
Modified
Stats Distance 1,559 nm / 2,886 km
Max Altitude 0 ft / 0 m
Waypoints 8
Social Downloads 2
Likes 0
Share VATSIM

Download

Looking for another format? Having issues loading an existing format? Contact us
Advertisement - Login to hide

Notes

Decoded

Route

BIEG UNITA IDONA RIVAP GSE18 GSE10 GSE05 LIMJ

ID Type Via Altitude Latitude Longitude Leg Dist Tot Dist Heading (true) Name
O BIEG APT - 0 ft / 0 m 65.27463˚ -14.41123˚ - 0 nm - -
UNITA FIX - 0 ft / 0 m 43.94444˚ 9.02500˚ 1498 nm 1498 nm 137° / 157° -
IDONA FIX - 0 ft / 0 m 43.98500˚ 9.43083˚ 17 nm 1516 nm 82° / 82° -
RIVAP FIX - 0 ft / 0 m 44.28333˚ 9.34889˚ 18 nm 1534 nm 349° / 349° -
GSE18 FIX - 0 ft / 0 m 44.31962˚ 9.25316˚ 4 nm 1539 nm 298° / 298° -
GSE10 FIX - 0 ft / 0 m 44.35962˚ 9.07476˚ 8 nm 1547 nm 287° / 287° -
GSE05 FIX - 0 ft / 0 m 44.38402˚ 8.96466˚ 4 nm 1552 nm 287° / 287° -
O LIMJ APT - 0 ft / 0 m 44.41542˚ 8.82419˚ 6 nm 1558 nm 287° / 287° -

Altitude Profile

Advertisement - Login to hide

Weather


0- 5 10 15 20 25 30 35+ Temperature / ° C

Clouds and Precipitation
Forecast for 2017-12-17 06:00 UTC. Updated an hour ago

Ground ~20,000 ft ~40,000 ft Winds

BIEG

Details ICAO BIEG (EGS)
Name Egilsstadir
Region Iceland
Timezone Atlantic/Reykjavik (UTC+0.0)
Stats Elevation 76 ft / 23 m (AMSL)
Location 65.282830° -14.402058°
Runways 1
Magnetic Variation 10.112° W

METAR

BIEG 170400Z 22004G21KT 9999 SCT049 BKN067 05/M02 Q0992 R04/790194 RMK RWY SANDED

Decode

TAF

TAF BIEG 170135Z 1703/1803 20012KT 9999 FEW025 BKN035 TX01/1703Z TNM02/1712Z FM170430 26015G25KT BECMG 1721/1724 19010KT PROB40 1800/1803 16015G25KT 5000 -SN BKN015

Decode

Departure Runways

ID Width Length Bearing (true) Bearing (mag) Surface Threshold Offset Overrun Length
04 148 ft / 45 m 6,569 ft / 2,002 m 25.32° 35.43° Asphalt 492 ft / 150 m 0 ft / 0 m
22 148 ft / 45 m 6,569 ft / 2,002 m 205.34° 215.45° Asphalt 0 ft / 0 m 197 ft / 60 m

LIMJ

Details ICAO LIMJ (GOA)
Name Genova Sestri
Region Italy
Timezone Unknown (UTC+0.0)
Stats Elevation 13 ft / 4 m (AMSL)
Location 44.411957° 8.841866°
Runways 1
Magnetic Variation 2.388° E

METAR

LIMJ 170350Z 06008KT 020V090 CAVOK 07/M05 Q1015

Decode

TAF

TAF LIMJ 162300Z 1700/1724 04012KT CAVOK

Decode

Destination Runways

ID Width Length Bearing (true) Bearing (mag) Surface Threshold Offset Overrun Length
10 148 ft / 45 m 9,574 ft / 2,918 m 105.39° 103.00° Asphalt 0 ft / 0 m 0 ft / 0 m
28 148 ft / 45 m 9,574 ft / 2,918 m 285.41° 283.02° Asphalt 538 ft / 164 m 0 ft / 0 m

Approach Navaids

Runway Type Ident Frequency Range Bearing (true) Bearing (mag) Slope Elevation
28 Localiser GSE 109.30 MHz 18 nm / 33 km 287.30° 284.91° - 9 ft / 3 m (AMSL)
28 Glidescope GSE 109.30 MHz 10 nm / 19 km 287.30° 284.91° 3.17° 26 ft / 8 m (AMSL)
28 DME GSE 109.30 MHz 18 nm / 33 km - - - 26 ft / 8 m (AMSL)